sensor_id;sensor_type;location;lat;lon;timestamp;P1;durP1;ratioP1;P2;durP2;ratioP2
21591;SDS011;10958;50.892;3.992;2023-03-21T00:01:12;13.07;;;6.65;;
21591;SDS011;10958;50.892;3.992;2023-03-21T00:03:39;11.32;;;6.45;;
21591;SDS011;10958;50.892;3.992;2023-03-21T00:06:08;12.52;;;6.47;;
21591;SDS011;10958;50.892;3.992;2023-03-21T00:08:35;12.40;;;5.88;;
21591;SDS011;10958;50.892;3.992;2023-03-21T00:11:03;10.20;;;6.25;;
21591;SDS011;10958;50.892;3.992;2023-03-21T00:13:31;12.88;;;6.63;;
21591;SDS011;10958;50.892;3.992;2023-03-21T00:16:23;13.13;;;6.22;;
21591;SDS011;10958;50.892;3.992;2023-03-21T00:18:48;10.95;;;6.05;;
21591;SDS011;10958;50.892;3.992;2023-03-21T00:21:17;12.30;;;6.35;;
21591;SDS011;10958;50.892;3.992;2023-03-21T00:23:45;14.40;;;6.95;;
21591;SDS011;10958;50.892;3.992;2023-03-21T00:26:12;14.63;;;5.97;;
21591;SDS011;10958;50.892;3.992;2023-03-21T00:28:39;16.05;;;6.55;;
21591;SDS011;10958;50.892;3.992;2023-03-21T00:31:06;14.73;;;6.53;;
21591;SDS011;10958;50.892;3.992;2023-03-21T00:33:32;15.73;;;7.43;;
21591;SDS011;10958;50.892;3.992;2023-03-21T00:36:03;13.02;;;6.88;;
21591;SDS011;10958;50.892;3.992;2023-03-21T00:38:29;15.02;;;6.22;;
21591;SDS011;10958;50.892;3.992;2023-03-21T00:40:55;12.88;;;6.15;;
21591;SDS011;10958;50.892;3.992;2023-03-21T00:43:21;10.32;;;5.18;;
21591;SDS011;10958;50.892;3.992;2023-03-21T00:45:54;11.43;;;5.65;;
21591;SDS011;10958;50.892;3.992;2023-03-21T00:48:21;12.20;;;5.78;;
21591;SDS011;10958;50.892;3.992;2023-03-21T00:50:50;10.43;;;5.20;;
21591;SDS011;10958;50.892;3.992;2023-03-21T00:53:18;12.23;;;5.53;;
21591;SDS011;10958;50.892;3.992;2023-03-21T00:55:45;16.20;;;6.10;;
21591;SDS011;10958;50.892;3.992;2023-03-21T00:58:14;10.43;;;4.82;;
21591;SDS011;10958;50.892;3.992;2023-03-21T01:00:40;12.50;;;5.38;;
21591;SDS011;10958;50.892;3.992;2023-03-21T01:03:07;11.38;;;5.35;;
21591;SDS011;10958;50.892;3.992;2023-03-21T01:05:39;7.55;;;3.72;;
21591;SDS011;10958;50.892;3.992;2023-03-21T01:08:25;14.00;;;5.85;;
21591;SDS011;10958;50.892;3.992;2023-03-21T01:10:53;18.27;;;5.53;;
21591;SDS011;10958;50.892;3.992;2023-03-21T01:13:21;13.18;;;5.20;;
21591;SDS011;10958;50.892;3.992;2023-03-21T01:15:53;9.68;;;4.78;;
21591;SDS011;10958;50.892;3.992;2023-03-21T01:18:21;8.50;;;5.38;;
21591;SDS011;10958;50.892;3.992;2023-03-21T01:20:49;13.57;;;5.25;;
21591;SDS011;10958;50.892;3.992;2023-03-21T01:23:15;14.23;;;4.97;;
21591;SDS011;10958;50.892;3.992;2023-03-21T01:25:42;11.98;;;5.25;;
21591;SDS011;10958;50.892;3.992;2023-03-21T01:28:07;11.00;;;5.07;;
21591;SDS011;10958;50.892;3.992;2023-03-21T01:30:34;13.93;;;5.25;;
21591;SDS011;10958;50.892;3.992;2023-03-21T01:33:01;12.57;;;5.38;;
21591;SDS011;10958;50.892;3.992;2023-03-21T01:35:27;10.98;;;5.30;;
21591;SDS011;10958;50.892;3.992;2023-03-21T01:37:53;12.55;;;5.55;;
21591;SDS011;10958;50.892;3.992;2023-03-21T01:40:21;12.05;;;5.18;;
21591;SDS011;10958;50.892;3.992;2023-03-21T01:42:51;10.27;;;4.43;;
21591;SDS011;10958;50.892;3.992;2023-03-21T01:48:23;8.70;;;4.60;;
21591;SDS011;10958;50.892;3.992;2023-03-21T01:50:53;11.48;;;4.88;;
21591;SDS011;10958;50.892;3.992;2023-03-21T01:53:21;12.35;;;4.53;;
21591;SDS011;10958;50.892;3.992;2023-03-21T01:55:53;10.00;;;5.30;;
21591;SDS011;10958;50.892;3.992;2023-03-21T01:58:42;10.60;;;4.17;;
21591;SDS011;10958;50.892;3.992;2023-03-21T02:01:09;14.88;;;4.82;;
21591;SDS011;10958;50.892;3.992;2023-03-21T02:03:37;7.25;;;3.95;;
21591;SDS011;10958;50.892;3.992;2023-03-21T02:06:14;8.95;;;4.43;;
21591;SDS011;10958;50.892;3.992;2023-03-21T02:08:43;8.90;;;4.28;;
21591;SDS011;10958;50.892;3.992;2023-03-21T02:11:10;11.25;;;4.60;;
21591;SDS011;10958;50.892;3.992;2023-03-21T02:13:36;11.07;;;4.60;;
21591;SDS011;10958;50.892;3.992;2023-03-21T02:16:13;9.65;;;5.05;;
21591;SDS011;10958;50.892;3.992;2023-03-21T02:32:10;16.13;;;5.28;;
21591;SDS011;10958;50.892;3.992;2023-03-21T02:35:23;12.27;;;4.18;;
21591;SDS011;10958;50.892;3.992;2023-03-21T02:38:07;9.93;;;4.70;;
21591;SDS011;10958;50.892;3.992;2023-03-21T02:51:30;13.32;;;5.00;;
21591;SDS011;10958;50.892;3.992;2023-03-21T02:54:00;9.45;;;4.75;;
21591;SDS011;10958;50.892;3.992;2023-03-21T02:56:28;9.95;;;4.70;;
21591;SDS011;10958;50.892;3.992;2023-03-21T02:58:57;15.80;;;4.72;;
21591;SDS011;10958;50.892;3.992;2023-03-21T03:01:24;12.05;;;4.63;;
21591;SDS011;10958;50.892;3.992;2023-03-21T03:03:50;17.00;;;5.07;;
21591;SDS011;10958;50.892;3.992;2023-03-21T03:06:21;10.93;;;4.95;;
21591;SDS011;10958;50.892;3.992;2023-03-21T03:11:38;7.95;;;4.80;;
21591;SDS011;10958;50.892;3.992;2023-03-21T03:16:47;12.13;;;5.15;;
21591;SDS011;10958;50.892;3.992;2023-03-21T03:19:25;12.23;;;5.22;;
21591;SDS011;10958;50.892;3.992;2023-03-21T03:22:02;9.70;;;4.70;;
21591;SDS011;10958;50.892;3.992;2023-03-21T03:24:37;16.52;;;5.28;;
21591;SDS011;10958;50.892;3.992;2023-03-21T03:27:24;10.88;;;5.03;;
21591;SDS011;10958;50.892;3.992;2023-03-21T03:29:53;13.75;;;4.75;;
21591;SDS011;10958;50.892;3.992;2023-03-21T03:32:24;7.65;;;4.50;;
21591;SDS011;10958;50.892;3.992;2023-03-21T03:35:02;8.77;;;4.78;;
21591;SDS011;10958;50.892;3.992;2023-03-21T03:37:30;14.98;;;4.80;;
21591;SDS011;10958;50.892;3.992;2023-03-21T03:39:59;10.15;;;4.70;;
21591;SDS011;10958;50.892;3.992;2023-03-21T03:42:51;12.88;;;5.22;;
21591;SDS011;10958;50.892;3.992;2023-03-21T03:45:36;13.10;;;4.78;;
21591;SDS011;10958;50.892;3.992;2023-03-21T03:48:19;10.40;;;4.68;;
21591;SDS011;10958;50.892;3.992;2023-03-21T03:53:27;11.30;;;4.90;;
21591;SDS011;10958;50.892;3.992;2023-03-21T03:56:00;15.90;;;4.95;;
21591;SDS011;10958;50.892;3.992;2023-03-21T03:58:28;12.55;;;5.45;;
21591;SDS011;10958;50.892;3.992;2023-03-21T04:00:55;12.25;;;4.93;;
21591;SDS011;10958;50.892;3.992;2023-03-21T04:03:24;11.65;;;5.00;;
21591;SDS011;10958;50.892;3.992;2023-03-21T04:05:50;16.52;;;5.22;;
21591;SDS011;10958;50.892;3.992;2023-03-21T04:08:16;14.43;;;5.25;;
21591;SDS011;10958;50.892;3.992;2023-03-21T04:10:47;16.98;;;4.95;;
21591;SDS011;10958;50.892;3.992;2023-03-21T04:13:13;10.20;;;4.95;;
21591;SDS011;10958;50.892;3.992;2023-03-21T04:15:39;11.55;;;4.93;;
21591;SDS011;10958;50.892;3.992;2023-03-21T04:18:05;12.35;;;4.97;;
21591;SDS011;10958;50.892;3.992;2023-03-21T04:20:30;11.10;;;4.80;;
21591;SDS011;10958;50.892;3.992;2023-03-21T04:22:58;15.70;;;5.93;;
21591;SDS011;10958;50.892;3.992;2023-03-21T04:25:24;17.10;;;6.97;;
21591;SDS011;10958;50.892;3.992;2023-03-21T04:27:52;19.15;;;6.75;;
21591;SDS011;10958;50.892;3.992;2023-03-21T04:30:19;15.38;;;6.60;;
21591;SDS011;10958;50.892;3.992;2023-03-21T04:32:48;19.88;;;7.38;;
21591;SDS011;10958;50.892;3.992;2023-03-21T04:35:25;20.85;;;7.43;;
21591;SDS011;10958;50.892;3.992;2023-03-21T04:37:52;13.40;;;6.13;;
21591;SDS011;10958;50.892;3.992;2023-03-21T04:40:21;11.63;;;5.25;;
21591;SDS011;10958;50.892;3.992;2023-03-21T04:42:49;14.60;;;5.25;;
21591;SDS011;10958;50.892;3.992;2023-03-21T04:45:16;11.32;;;6.00;;
21591;SDS011;10958;50.892;3.992;2023-03-21T04:47:42;15.27;;;5.63;;
21591;SDS011;10958;50.892;3.992;2023-03-21T04:50:08;15.23;;;6.00;;
21591;SDS011;10958;50.892;3.992;2023-03-21T04:52:35;11.82;;;5.65;;
21591;SDS011;10958;50.892;3.992;2023-03-21T04:55:00;19.30;;;6.80;;
21591;SDS011;10958;50.892;3.992;2023-03-21T04:57:26;13.73;;;6.22;;
21591;SDS011;10958;50.892;3.992;2023-03-21T04:59:52;18.50;;;6.97;;
21591;SDS011;10958;50.892;3.992;2023-03-21T05:02:18;14.32;;;6.75;;
21591;SDS011;10958;50.892;3.992;2023-03-21T05:04:46;12.60;;;6.57;;
21591;SDS011;10958;50.892;3.992;2023-03-21T05:07:12;16.50;;;7.75;;
21591;SDS011;10958;50.892;3.992;2023-03-21T05:09:37;22.75;;;10.18;;
21591;SDS011;10958;50.892;3.992;2023-03-21T05:12:06;18.70;;;8.75;;
21591;SDS011;10958;50.892;3.992;2023-03-21T05:14:34;18.08;;;7.70;;
21591;SDS011;10958;50.892;3.992;2023-03-21T05:17:00;17.75;;;7.63;;
21591;SDS011;10958;50.892;3.992;2023-03-21T05:19:29;18.05;;;7.78;;
21591;SDS011;10958;50.892;3.992;2023-03-21T05:22:09;19.63;;;8.40;;
21591;SDS011;10958;50.892;3.992;2023-03-21T05:24:36;25.00;;;9.65;;
21591;SDS011;10958;50.892;3.992;2023-03-21T05:27:06;21.75;;;9.07;;
21591;SDS011;10958;50.892;3.992;2023-03-21T05:29:35;18.38;;;8.82;;
21591;SDS011;10958;50.892;3.992;2023-03-21T05:32:01;19.60;;;8.75;;
21591;SDS011;10958;50.892;3.992;2023-03-21T05:34:29;16.15;;;8.55;;
21591;SDS011;10958;50.892;3.992;2023-03-21T05:36:56;20.83;;;10.13;;
21591;SDS011;10958;50.892;3.992;2023-03-21T05:39:21;19.08;;;9.05;;
21591;SDS011;10958;50.892;3.992;2023-03-21T05:41:47;21.70;;;8.13;;
21591;SDS011;10958;50.892;3.992;2023-03-21T05:44:14;16.15;;;8.48;;
21591;SDS011;10958;50.892;3.992;2023-03-21T05:46:39;13.82;;;8.02;;
21591;SDS011;10958;50.892;3.992;2023-03-21T05:49:05;20.90;;;8.23;;
21591;SDS011;10958;50.892;3.992;2023-03-21T05:51:31;15.65;;;8.15;;
21591;SDS011;10958;50.892;3.992;2023-03-21T05:53:57;17.48;;;8.50;;
21591;SDS011;10958;50.892;3.992;2023-03-21T05:56:22;16.08;;;8.25;;
21591;SDS011;10958;50.892;3.992;2023-03-21T05:58:48;19.73;;;9.13;;
21591;SDS011;10958;50.892;3.992;2023-03-21T06:01:14;19.88;;;9.32;;
21591;SDS011;10958;50.892;3.992;2023-03-21T06:03:40;21.92;;;9.90;;
21591;SDS011;10958;50.892;3.992;2023-03-21T06:06:06;18.88;;;8.80;;
21591;SDS011;10958;50.892;3.992;2023-03-21T06:08:34;20.77;;;9.13;;
21591;SDS011;10958;50.892;3.992;2023-03-21T06:11:03;16.42;;;8.35;;
21591;SDS011;10958;50.892;3.992;2023-03-21T06:13:30;22.13;;;8.52;;
21591;SDS011;10958;50.892;3.992;2023-03-21T06:15:59;16.98;;;8.15;;
21591;SDS011;10958;50.892;3.992;2023-03-21T06:18:25;20.08;;;8.57;;
21591;SDS011;10958;50.892;3.992;2023-03-21T06:20:52;17.13;;;7.90;;
21591;SDS011;10958;50.892;3.992;2023-03-21T06:23:18;16.20;;;8.82;;
21591;SDS011;10958;50.892;3.992;2023-03-21T06:25:51;17.90;;;8.32;;
21591;SDS011;10958;50.892;3.992;2023-03-21T06:28:17;18.00;;;8.77;;
21591;SDS011;10958;50.892;3.992;2023-03-21T06:30:43;13.05;;;6.95;;
21591;SDS011;10958;50.892;3.992;2023-03-21T06:33:08;17.02;;;7.53;;
21591;SDS011;10958;50.892;3.992;2023-03-21T06:35:34;19.48;;;8.27;;
21591;SDS011;10958;50.892;3.992;2023-03-21T06:38:01;17.55;;;7.65;;
21591;SDS011;10958;50.892;3.992;2023-03-21T06:40:27;19.00;;;7.97;;
21591;SDS011;10958;50.892;3.992;2023-03-21T06:42:53;13.45;;;7.07;;
21591;SDS011;10958;50.892;3.992;2023-03-21T06:45:19;19.02;;;8.02;;
21591;SDS011;10958;50.892;3.992;2023-03-21T06:47:45;15.73;;;7.30;;
21591;SDS011;10958;50.892;3.992;2023-03-21T06:50:11;16.13;;;6.78;;
21591;SDS011;10958;50.892;3.992;2023-03-21T06:52:38;15.88;;;7.60;;
21591;SDS011;10958;50.892;3.992;2023-03-21T06:55:04;15.77;;;6.78;;
21591;SDS011;10958;50.892;3.992;2023-03-21T06:57:30;15.00;;;7.45;;
21591;SDS011;10958;50.892;3.992;2023-03-21T06:59:56;12.02;;;6.53;;
21591;SDS011;10958;50.892;3.992;2023-03-21T07:02:22;11.73;;;6.43;;
21591;SDS011;10958;50.892;3.992;2023-03-21T07:04:48;14.60;;;7.55;;
21591;SDS011;10958;50.892;3.992;2023-03-21T07:07:16;15.75;;;7.55;;
21591;SDS011;10958;50.892;3.992;2023-03-21T07:09:42;16.45;;;7.45;;
21591;SDS011;10958;50.892;3.992;2023-03-21T07:12:08;14.68;;;6.10;;
21591;SDS011;10958;50.892;3.992;2023-03-21T07:14:36;13.13;;;5.80;;
21591;SDS011;10958;50.892;3.992;2023-03-21T07:17:04;10.57;;;5.50;;
21591;SDS011;10958;50.892;3.992;2023-03-21T07:19:30;12.38;;;5.10;;
21591;SDS011;10958;50.892;3.992;2023-03-21T07:21:57;14.32;;;5.35;;
21591;SDS011;10958;50.892;3.992;2023-03-21T07:24:22;12.25;;;5.57;;
21591;SDS011;10958;50.892;3.992;2023-03-21T07:26:51;10.77;;;4.93;;
21591;SDS011;10958;50.892;3.992;2023-03-21T07:29:20;11.70;;;5.10;;
21591;SDS011;10958;50.892;3.992;2023-03-21T07:31:47;9.32;;;4.70;;
21591;SDS011;10958;50.892;3.992;2023-03-21T07:34:14;12.07;;;4.72;;
21591;SDS011;10958;50.892;3.992;2023-03-21T07:36:41;13.40;;;4.68;;
21591;SDS011;10958;50.892;3.992;2023-03-21T07:39:07;10.48;;;4.40;;
21591;SDS011;10958;50.892;3.992;2023-03-21T07:41:35;11.57;;;4.82;;
21591;SDS011;10958;50.892;3.992;2023-03-21T07:44:02;14.50;;;5.50;;
21591;SDS011;10958;50.892;3.992;2023-03-21T07:46:30;9.13;;;3.97;;
21591;SDS011;10958;50.892;3.992;2023-03-21T07:48:59;5.97;;;3.35;;
21591;SDS011;10958;50.892;3.992;2023-03-21T07:51:25;7.78;;;4.10;;
21591;SDS011;10958;50.892;3.992;2023-03-21T07:53:53;9.95;;;4.63;;
21591;SDS011;10958;50.892;3.992;2023-03-21T07:56:20;13.18;;;4.78;;
21591;SDS011;10958;50.892;3.992;2023-03-21T07:58:51;16.20;;;5.97;;
21591;SDS011;10958;50.892;3.992;2023-03-21T08:01:58;11.35;;;4.50;;
21591;SDS011;10958;50.892;3.992;2023-03-21T08:04:24;11.30;;;4.45;;
21591;SDS011;10958;50.892;3.992;2023-03-21T08:23:41;8.40;;;4.07;;
21591;SDS011;10958;50.892;3.992;2023-03-21T08:29:51;13.02;;;5.10;;
21591;SDS011;10958;50.892;3.992;2023-03-21T08:39:30;11.32;;;4.22;;
21591;SDS011;10958;50.892;3.992;2023-03-21T08:49:34;10.15;;;3.92;;
21591;SDS011;10958;50.892;3.992;2023-03-21T08:52:37;9.65;;;4.22;;
21591;SDS011;10958;50.892;3.992;2023-03-21T09:01:26;10.18;;;3.67;;
21591;SDS011;10958;50.892;3.992;2023-03-21T09:03:52;8.02;;;3.85;;
21591;SDS011;10958;50.892;3.992;2023-03-21T09:06:46;12.82;;;3.83;;
21591;SDS011;10958;50.892;3.992;2023-03-21T09:09:29;14.40;;;3.88;;
21591;SDS011;10958;50.892;3.992;2023-03-21T09:11:55;7.30;;;3.80;;
21591;SDS011;10958;50.892;3.992;2023-03-21T09:14:32;10.07;;;4.03;;
21591;SDS011;10958;50.892;3.992;2023-03-21T09:17:06;6.25;;;3.75;;
21591;SDS011;10958;50.892;3.992;2023-03-21T09:23:07;9.48;;;3.83;;
21591;SDS011;10958;50.892;3.992;2023-03-21T09:25:35;12.95;;;3.92;;
21591;SDS011;10958;50.892;3.992;2023-03-21T09:28:01;7.40;;;3.65;;
21591;SDS011;10958;50.892;3.992;2023-03-21T09:30:31;14.30;;;3.80;;
21591;SDS011;10958;50.892;3.992;2023-03-21T09:33:03;8.77;;;3.77;;
21591;SDS011;10958;50.892;3.992;2023-03-21T09:36:25;8.88;;;3.50;;
21591;SDS011;10958;50.892;3.992;2023-03-21T09:38:52;7.53;;;3.28;;
21591;SDS011;10958;50.892;3.992;2023-03-21T09:49:22;6.30;;;3.50;;
21591;SDS011;10958;50.892;3.992;2023-03-21T09:51:55;10.85;;;3.53;;
21591;SDS011;10958;50.892;3.992;2023-03-21T09:56:55;10.32;;;3.40;;
21591;SDS011;10958;50.892;3.992;2023-03-21T10:05:22;9.35;;;3.33;;
21591;SDS011;10958;50.892;3.992;2023-03-21T10:08:00;9.20;;;3.38;;
21591;SDS011;10958;50.892;3.992;2023-03-21T10:10:50;8.60;;;3.33;;
21591;SDS011;10958;50.892;3.992;2023-03-21T10:13:21;8.30;;;3.08;;
21591;SDS011;10958;50.892;3.992;2023-03-21T10:15:52;26.05;;;3.60;;
21591;SDS011;10958;50.892;3.992;2023-03-21T10:18:22;8.65;;;3.25;;
21591;SDS011;10958;50.892;3.992;2023-03-21T10:20:50;7.80;;;3.30;;
21591;SDS011;10958;50.892;3.992;2023-03-21T10:23:21;8.60;;;3.42;;
21591;SDS011;10958;50.892;3.992;2023-03-21T10:25:55;9.73;;;3.00;;
21591;SDS011;10958;50.892;3.992;2023-03-21T10:28:29;7.70;;;3.05;;
21591;SDS011;10958;50.892;3.992;2023-03-21T10:31:08;7.53;;;3.35;;
21591;SDS011;10958;50.892;3.992;2023-03-21T10:33:41;6.35;;;3.20;;
21591;SDS011;10958;50.892;3.992;2023-03-21T10:36:11;5.75;;;3.10;;
21591;SDS011;10958;50.892;3.992;2023-03-21T10:38:53;9.20;;;3.70;;
21591;SDS011;10958;50.892;3.992;2023-03-21T10:41:27;9.75;;;3.15;;
21591;SDS011;10958;50.892;3.992;2023-03-21T10:44:08;11.13;;;3.60;;
21591;SDS011;10958;50.892;3.992;2023-03-21T10:49:37;5.80;;;3.38;;
21591;SDS011;10958;50.892;3.992;2023-03-21T10:52:07;8.35;;;3.17;;
21591;SDS011;10958;50.892;3.992;2023-03-21T10:54:35;11.40;;;3.42;;
21591;SDS011;10958;50.892;3.992;2023-03-21T10:59:27;5.75;;;3.40;;
21591;SDS011;10958;50.892;3.992;2023-03-21T11:03:36;9.52;;;3.92;;
21591;SDS011;10958;50.892;3.992;2023-03-21T11:08:55;7.70;;;3.70;;
21591;SDS011;10958;50.892;3.992;2023-03-21T11:11:36;7.45;;;3.70;;
21591;SDS011;10958;50.892;3.992;2023-03-21T11:14:05;14.10;;;5.22;;
21591;SDS011;10958;50.892;3.992;2023-03-21T11:16:49;7.50;;;3.58;;
21591;SDS011;10958;50.892;3.992;2023-03-21T11:19:16;9.02;;;3.40;;
21591;SDS011;10958;50.892;3.992;2023-03-21T11:22:07;9.35;;;4.03;;
21591;SDS011;10958;50.892;3.992;2023-03-21T11:24:33;7.78;;;3.60;;
21591;SDS011;10958;50.892;3.992;2023-03-21T11:27:03;6.45;;;3.40;;
21591;SDS011;10958;50.892;3.992;2023-03-21T11:29:32;9.45;;;4.22;;
21591;SDS011;10958;50.892;3.992;2023-03-21T11:32:00;8.57;;;4.13;;
21591;SDS011;10958;50.892;3.992;2023-03-21T11:34:50;7.07;;;3.65;;
21591;SDS011;10958;50.892;3.992;2023-03-21T11:37:32;9.65;;;4.57;;
21591;SDS011;10958;50.892;3.992;2023-03-21T11:40:12;12.32;;;4.25;;
21591;SDS011;10958;50.892;3.992;2023-03-21T11:42:55;7.63;;;3.58;;
21591;SDS011;10958;50.892;3.992;2023-03-21T11:45:26;10.75;;;5.38;;
21591;SDS011;10958;50.892;3.992;2023-03-21T11:47:54;7.43;;;4.10;;
21591;SDS011;10958;50.892;3.992;2023-03-21T12:01:00;7.95;;;4.30;;
21591;SDS011;10958;50.892;3.992;2023-03-21T12:12:02;6.85;;;4.10;;
21591;SDS011;10958;50.892;3.992;2023-03-21T12:14:59;6.30;;;3.75;;
21591;SDS011;10958;50.892;3.992;2023-03-21T12:25:44;10.02;;;4.00;;
21591;SDS011;10958;50.892;3.992;2023-03-21T12:36:55;10.10;;;3.72;;
21591;SDS011;10958;50.892;3.992;2023-03-21T12:39:34;10.15;;;4.40;;
21591;SDS011;10958;50.892;3.992;2023-03-21T12:44:49;6.35;;;3.80;;
21591;SDS011;10958;50.892;3.992;2023-03-21T12:47:28;7.88;;;3.70;;
21591;SDS011;10958;50.892;3.992;2023-03-21T12:49:59;8.65;;;3.72;;
21591;SDS011;10958;50.892;3.992;2023-03-21T12:52:34;5.35;;;3.10;;
21591;SDS011;10958;50.892;3.992;2023-03-21T12:55:14;7.13;;;3.60;;
21591;SDS011;10958;50.892;3.992;2023-03-21T12:57:52;8.88;;;4.18;;
21591;SDS011;10958;50.892;3.992;2023-03-21T13:10:38;8.48;;;3.72;;
21591;SDS011;10958;50.892;3.992;2023-03-21T13:13:52;7.05;;;3.53;;
21591;SDS011;10958;50.892;3.992;2023-03-21T13:16:19;6.13;;;3.60;;
21591;SDS011;10958;50.892;3.992;2023-03-21T13:24:18;8.85;;;3.92;;
21591;SDS011;10958;50.892;3.992;2023-03-21T13:27:05;7.45;;;3.40;;
21591;SDS011;10958;50.892;3.992;2023-03-21T13:32:19;10.30;;;4.18;;
21591;SDS011;10958;50.892;3.992;2023-03-21T13:35:41;7.47;;;4.32;;
21591;SDS011;10958;50.892;3.992;2023-03-21T13:40:38;8.45;;;4.90;;
21591;SDS011;10958;50.892;3.992;2023-03-21T13:43:28;11.15;;;5.57;;
21591;SDS011;10958;50.892;3.992;2023-03-21T13:46:05;9.23;;;4.47;;
21591;SDS011;10958;50.892;3.992;2023-03-21T13:48:44;8.90;;;4.50;;
21591;SDS011;10958;50.892;3.992;2023-03-21T13:51:47;7.82;;;5.13;;
21591;SDS011;10958;50.892;3.992;2023-03-21T13:59:11;12.15;;;6.35;;
21591;SDS011;10958;50.892;3.992;2023-03-21T14:05:05;13.05;;;6.25;;
21591;SDS011;10958;50.892;3.992;2023-03-21T14:07:42;12.73;;;6.43;;
21591;SDS011;10958;50.892;3.992;2023-03-21T14:12:55;9.00;;;5.88;;
21591;SDS011;10958;50.892;3.992;2023-03-21T14:15:26;10.80;;;5.93;;
21591;SDS011;10958;50.892;3.992;2023-03-21T14:18:00;10.27;;;5.70;;
21591;SDS011;10958;50.892;3.992;2023-03-21T14:20:31;10.63;;;6.20;;
21591;SDS011;10958;50.892;3.992;2023-03-21T14:23:02;14.43;;;6.53;;
21591;SDS011;10958;50.892;3.992;2023-03-21T14:25:34;16.83;;;7.32;;
21591;SDS011;10958;50.892;3.992;2023-03-21T14:28:03;11.40;;;7.68;;
21591;SDS011;10958;50.892;3.992;2023-03-21T14:30:33;12.95;;;8.32;;
21591;SDS011;10958;50.892;3.992;2023-03-21T14:35:51;12.80;;;8.23;;
21591;SDS011;10958;50.892;3.992;2023-03-21T14:38:21;9.07;;;5.80;;
21591;SDS011;10958;50.892;3.992;2023-03-21T14:40:51;10.68;;;6.43;;
21591;SDS011;10958;50.892;3.992;2023-03-21T14:43:19;13.05;;;7.47;;
21591;SDS011;10958;50.892;3.992;2023-03-21T14:45:46;10.90;;;7.32;;
21591;SDS011;10958;50.892;3.992;2023-03-21T14:48:16;13.02;;;7.82;;
21591;SDS011;10958;50.892;3.992;2023-03-21T14:53:19;8.77;;;6.25;;
21591;SDS011;10958;50.892;3.992;2023-03-21T14:55:53;11.25;;;6.13;;
21591;SDS011;10958;50.892;3.992;2023-03-21T14:58:30;9.00;;;5.60;;
21591;SDS011;10958;50.892;3.992;2023-03-21T15:01:00;7.93;;;5.60;;
21591;SDS011;10958;50.892;3.992;2023-03-21T15:03:28;8.98;;;5.80;;
21591;SDS011;10958;50.892;3.992;2023-03-21T15:05:56;11.55;;;6.30;;
21591;SDS011;10958;50.892;3.992;2023-03-21T15:08:23;9.48;;;6.10;;
21591;SDS011;10958;50.892;3.992;2023-03-21T15:13:27;9.93;;;5.25;;
21591;SDS011;10958;50.892;3.992;2023-03-21T15:15:58;8.68;;;5.55;;
21591;SDS011;10958;50.892;3.992;2023-03-21T15:18:32;9.57;;;4.93;;
21591;SDS011;10958;50.892;3.992;2023-03-21T15:21:14;10.32;;;5.15;;
21591;SDS011;10958;50.892;3.992;2023-03-21T15:23:48;9.88;;;4.85;;
21591;SDS011;10958;50.892;3.992;2023-03-21T15:26:19;7.95;;;4.63;;
21591;SDS011;10958;50.892;3.992;2023-03-21T15:28:47;7.72;;;4.82;;
21591;SDS011;10958;50.892;3.992;2023-03-21T15:31:19;15.18;;;4.78;;
21591;SDS011;10958;50.892;3.992;2023-03-21T15:33:50;9.18;;;5.15;;
21591;SDS011;10958;50.892;3.992;2023-03-21T15:36:21;8.07;;;4.95;;
21591;SDS011;10958;50.892;3.992;2023-03-21T15:38:50;8.32;;;5.32;;
21591;SDS011;10958;50.892;3.992;2023-03-21T15:43:52;6.75;;;4.95;;
21591;SDS011;10958;50.892;3.992;2023-03-21T15:46:32;7.88;;;4.80;;
21591;SDS011;10958;50.892;3.992;2023-03-21T15:51:43;6.85;;;5.18;;
21591;SDS011;10958;50.892;3.992;2023-03-21T15:54:13;13.85;;;6.35;;
21591;SDS011;10958;50.892;3.992;2023-03-21T15:56:53;8.40;;;5.45;;
21591;SDS011;10958;50.892;3.992;2023-03-21T15:59:22;9.27;;;5.45;;
21591;SDS011;10958;50.892;3.992;2023-03-21T16:01:52;11.20;;;6.35;;
21591;SDS011;10958;50.892;3.992;2023-03-21T16:04:18;9.35;;;5.45;;
21591;SDS011;10958;50.892;3.992;2023-03-21T16:09:23;9.57;;;5.43;;
21591;SDS011;10958;50.892;3.992;2023-03-21T16:11:50;10.60;;;5.95;;
21591;SDS011;10958;50.892;3.992;2023-03-21T16:14:28;9.50;;;5.70;;
21591;SDS011;10958;50.892;3.992;2023-03-21T16:16:54;11.98;;;5.57;;
21591;SDS011;10958;50.892;3.992;2023-03-21T16:19:21;9.88;;;5.82;;
21591;SDS011;10958;50.892;3.992;2023-03-21T16:21:48;9.38;;;5.22;;
21591;SDS011;10958;50.892;3.992;2023-03-21T16:24:16;12.05;;;6.15;;
21591;SDS011;10958;50.892;3.992;2023-03-21T16:26:46;10.15;;;5.50;;
21591;SDS011;10958;50.892;3.992;2023-03-21T16:29:15;10.02;;;5.03;;
21591;SDS011;10958;50.892;3.992;2023-03-21T16:31:42;9.95;;;5.47;;
21591;SDS011;10958;50.892;3.992;2023-03-21T16:34:08;12.57;;;6.25;;
21591;SDS011;10958;50.892;3.992;2023-03-21T16:36:36;10.60;;;5.65;;
21591;SDS011;10958;50.892;3.992;2023-03-21T16:39:10;10.25;;;4.20;;
21591;SDS011;10958;50.892;3.992;2023-03-21T16:41:43;8.52;;;4.60;;
21591;SDS011;10958;50.892;3.992;2023-03-21T16:44:09;9.40;;;4.47;;
21591;SDS011;10958;50.892;3.992;2023-03-21T16:46:39;11.55;;;5.00;;
21591;SDS011;10958;50.892;3.992;2023-03-21T16:49:05;13.95;;;6.72;;
21591;SDS011;10958;50.892;3.992;2023-03-21T16:51:42;7.78;;;4.40;;
21591;SDS011;10958;50.892;3.992;2023-03-21T16:54:08;8.15;;;4.55;;
21591;SDS011;10958;50.892;3.992;2023-03-21T16:59:04;8.38;;;3.83;;
21591;SDS011;10958;50.892;3.992;2023-03-21T17:01:33;8.63;;;4.28;;
21591;SDS011;10958;50.892;3.992;2023-03-21T17:04:03;9.93;;;4.30;;
21591;SDS011;10958;50.892;3.992;2023-03-21T17:06:29;8.50;;;4.03;;
21591;SDS011;10958;50.892;3.992;2023-03-21T17:08:55;7.55;;;4.25;;
21591;SDS011;10958;50.892;3.992;2023-03-21T17:11:24;7.35;;;4.50;;
21591;SDS011;10958;50.892;3.992;2023-03-21T17:13:55;7.20;;;4.30;;
21591;SDS011;10958;50.892;3.992;2023-03-21T17:16:24;6.03;;;3.53;;
21591;SDS011;10958;50.892;3.992;2023-03-21T17:18:50;6.50;;;4.38;;
21591;SDS011;10958;50.892;3.992;2023-03-21T17:21:21;5.03;;;4.07;;
21591;SDS011;10958;50.892;3.992;2023-03-21T17:23:50;7.38;;;4.72;;
21591;SDS011;10958;50.892;3.992;2023-03-21T17:26:18;11.50;;;6.63;;
21591;SDS011;10958;50.892;3.992;2023-03-21T17:28:48;11.75;;;6.40;;
21591;SDS011;10958;50.892;3.992;2023-03-21T17:31:19;13.45;;;8.05;;
21591;SDS011;10958;50.892;3.992;2023-03-21T17:33:46;7.57;;;4.82;;
21591;SDS011;10958;50.892;3.992;2023-03-21T17:36:16;9.90;;;4.97;;
21591;SDS011;10958;50.892;3.992;2023-03-21T17:38:44;8.95;;;5.13;;
21591;SDS011;10958;50.892;3.992;2023-03-21T17:41:11;8.02;;;5.00;;
21591;SDS011;10958;50.892;3.992;2023-03-21T17:43:38;6.20;;;4.05;;
21591;SDS011;10958;50.892;3.992;2023-03-21T17:46:04;5.75;;;4.25;;
21591;SDS011;10958;50.892;3.992;2023-03-21T17:48:31;5.35;;;4.07;;
21591;SDS011;10958;50.892;3.992;2023-03-21T17:50:57;6.72;;;3.83;;
21591;SDS011;10958;50.892;3.992;2023-03-21T17:53:24;9.52;;;4.53;;
21591;SDS011;10958;50.892;3.992;2023-03-21T17:55:50;7.38;;;5.05;;
21591;SDS011;10958;50.892;3.992;2023-03-21T17:58:19;12.73;;;5.27;;
21591;SDS011;10958;50.892;3.992;2023-03-21T18:00:44;10.15;;;4.95;;
21591;SDS011;10958;50.892;3.992;2023-03-21T18:03:11;7.40;;;5.15;;
21591;SDS011;10958;50.892;3.992;2023-03-21T18:05:37;7.30;;;4.70;;
21591;SDS011;10958;50.892;3.992;2023-03-21T18:08:06;7.90;;;4.97;;
21591;SDS011;10958;50.892;3.992;2023-03-21T18:10:33;9.63;;;6.68;;
21591;SDS011;10958;50.892;3.992;2023-03-21T18:12:58;6.55;;;4.78;;
21591;SDS011;10958;50.892;3.992;2023-03-21T18:15:25;6.43;;;5.18;;
21591;SDS011;10958;50.892;3.992;2023-03-21T18:17:54;8.02;;;4.82;;